Time;durP1;ratioP1;P1;durP2;ratioP2;P2;SDS_P1;SDS_P2;PMS_P1;PMS_P2;Temp;Humidity;BMP_temperature;BMP_pressure;BME280_temperature;BME280_humidity;BME280_pressure;Samples;Min_cycle;Max_cycle;Signal;HPM_P1;HPM_P2
2022/10/24 00:01:16;;;;;;;;;;;;;;;;;;5014954;28;19932;-76
2022/10/24 00:03:43;;;;;;;;;;;;;;;;;;5014669;28;19930;-79
2022/10/24 00:06:10;;;;;;;;;;;;;;;;;;5014389;28;20384;-78
2022/10/24 00:08:37;;;;;;;;;;;;;;;;;;5014176;28;20300;-78
2022/10/24 00:11:07;;;;;;;;;;;;;;;;;;5014975;28;20012;-77
2022/10/24 00:13:35;;;;;;;;;;;;;;;;;;5014494;28;20008;-77
2022/10/24 00:16:02;;;;;;;;;;;;;;;;;;5014130;28;20028;-77
2022/10/24 00:18:28;;;;;;;;;;;;;;;;;;5013856;28;19932;-77
2022/10/24 00:20:54;;;;;;;;;;;;;;;;;;5015364;28;20011;-77
2022/10/24 00:23:21;;;;;;;;;;;;;;;;;;5017125;28;19984;-77
2022/10/24 00:25:47;;;;;;;;;;;;;;;;;;5013738;28;20025;-77
2022/10/24 00:28:14;;;;;;;;;;;;;;;;;;5016202;28;19977;-79
2022/10/24 00:30:42;;;;;;;;;;;;;;;;;;5016401;28;20332;-77
2022/10/24 00:33:08;;;;;;;;;;;;;;;;;;5014185;28;20024;-77
2022/10/24 00:35:34;;;;;;;;;;;;;;;;;;5013678;28;20452;-77
2022/10/24 00:38:01;;;;;;;;;;;;;;;;;;5013767;28;20555;-77
2022/10/24 00:40:27;;;;;;;;;;;;;;;;;;5013755;28;19973;-78
2022/10/24 00:42:54;;;;;;;;;;;;;;;;;;5013679;28;19980;-78
2022/10/24 00:45:38;;;;;;;;;;;;;;;;;;5015492;28;19925;-78
2022/10/24 00:48:12;;;;;;;;;;;;;;;;;;5015704;28;19984;-78
2022/10/24 00:50:39;;;;;;;;;;;;;;;;;;5017011;28;19932;-78
2022/10/24 00:53:05;;;;;;;;;;;;;;;;;;5016097;28;19972;-79
2022/10/24 00:55:32;;;;;;;;;;;;;;;;;;5016116;28;19976;-78
2022/10/24 00:58:00;;;;;;;;;;;;;;;;;;5015540;28;19965;-78
2022/10/24 01:00:29;;;;;;;;;;;;;;;;;;5016319;28;20360;-78
2022/10/24 01:02:56;;;;;;;;;;;;;;;;;;5016830;28;19932;-78
2022/10/24 01:05:26;;;;;;;;;;;;;;;;;;5016309;28;19929;-78
2022/10/24 01:07:57;;;;;;;;;;;;;;;;;;5016518;28;20016;-77
2022/10/24 01:10:30;;;;;;;;;;;;;;;;;;5017413;28;19977;-78
2022/10/24 01:13:02;;;;;;;;;;;;;;;;;;5017742;28;19925;-78
2022/10/24 01:15:33;;;;;;;;;;;;;;;;;;5017048;28;19975;-78
2022/10/24 01:18:02;;;;;;;;;;;;;;;;;;5017116;28;19972;-77
2022/10/24 01:20:37;;;;;;;;;;;;;;;;;;5018754;28;19925;-78
2022/10/24 01:23:22;;;;;;;;;;;;;;;;;;5018337;28;20008;-77
2022/10/24 01:25:56;;;;;;;;;;;;;;;;;;5019110;28;19960;-78
2022/10/24 01:28:24;;;;;;;;;;;;;;;;;;5018069;28;19929;-78
2022/10/24 01:30:53;;;;;;;;;;;;;;;;;;5018232;28;19925;-78
2022/10/24 01:33:22;;;;;;;;;;;;;;;;;;5015646;28;19945;-77
2022/10/24 01:35:51;;;;;;;;;;;;;;;;;;5015013;28;19964;-79
2022/10/24 01:38:20;;;;;;;;;;;;;;;;;;5014494;28;20416;-79
2022/10/24 01:40:50;;;;;;;;;;;;;;;;;;5012873;28;19932;-79
2022/10/24 01:43:18;;;;;;;;;;;;;;;;;;5012687;28;19925;-79
2022/10/24 01:45:47;;;;;;;;;;;;;;;;;;5012743;28;20002;-79
2022/10/24 01:48:16;;;;;;;;;;;;;;;;;;5012830;28;19925;-78
2022/10/24 01:50:44;;;;;;;;;;;;;;;;;;5013205;28;19983;-77
2022/10/24 01:53:12;;;;;;;;;;;;;;;;;;5012753;28;20023;-78
2022/10/24 01:55:39;;;;;;;;;;;;;;;;;;5012395;28;19925;-78
2022/10/24 01:58:06;;;;;;;;;;;;;;;;;;5012825;28;20036;-78
2022/10/24 02:00:33;;;;;;;;;;;;;;;;;;5012273;28;19976;-78
2022/10/24 02:03:01;;;;;;;;;;;;;;;;;;5012584;28;20377;-79
2022/10/24 02:05:30;;;;;;;;;;;;;;;;;;5012121;28;19972;-77
2022/10/24 02:07:59;;;;;;;;;;;;;;;;;;5012232;28;19932;-79
2022/10/24 02:10:28;;;;;;;;;;;;;;;;;;5012127;28;20016;-78
2022/10/24 02:12:56;;;;;;;;;;;;;;;;;;5012258;28;19984;-79
2022/10/24 02:15:24;;;;;;;;;;;;;;;;;;5012149;28;19944;-78
2022/10/24 02:17:51;;;;;;;;;;;;;;;;;;5012376;28;20019;-79
2022/10/24 02:20:18;;;;;;;;;;;;;;;;;;5012699;28;20020;-78
2022/10/24 02:22:49;;;;;;;;;;;;;;;;;;5012929;28;19979;-79
2022/10/24 02:25:18;;;;;;;;;;;;;;;;;;5012867;28;19938;-79
2022/10/24 02:27:47;;;;;;;;;;;;;;;;;;5012548;28;20016;-79
2022/10/24 02:30:15;;;;;;;;;;;;;;;;;;5012549;28;20028;-79
2022/10/24 02:32:43;;;;;;;;;;;;;;;;;;5013109;28;20024;-79
2022/10/24 02:35:10;;;;;;;;;;;;;;;;;;5012768;28;20016;-79
2022/10/24 02:37:39;;;;;;;;;;;;;;;;;;5015053;28;19971;-79
2022/10/24 02:40:09;;;;;;;;;;;;;;;;;;5033340;28;19932;-78
2022/10/24 02:42:36;;;;;;;;;;;;;;;;;;5023654;28;19985;-79
2022/10/24 02:45:03;;;;;;;;;;;;;;;;;;5036976;28;19968;-79
2022/10/24 02:47:31;;;;;;;;;;;;;;;;;;5037428;28;19926;-80
2022/10/24 02:49:57;;;;;;;;;;;;;;;;;;5028837;28;19909;-79
2022/10/24 02:52:24;;;;;;;;;;;;;;;;;;5027159;28;19925;-78
2022/10/24 02:54:51;;;;;;;;;;;;;;;;;;5017096;28;20487;-78
2022/10/24 02:57:20;;;;;;;;;;;;;;;;;;5014492;28;19932;-77
2022/10/24 02:59:47;;;;;;;;;;;;;;;;;;5013407;28;20401;-78
2022/10/24 03:02:13;;;;;;;;;;;;;;;;;;5013344;28;20362;-78
2022/10/24 03:04:40;;;;;;;;;;;;;;;;;;5031505;28;19975;-77
2022/10/24 03:07:09;;;;;;;;;;;;;;;;;;5031883;28;19979;-77
2022/10/24 03:09:36;;;;;;;;;;;;;;;;;;5031867;28;20016;-77
2022/10/24 03:12:02;;;;;;;;;;;;;;;;;;5035491;28;19929;-77
2022/10/24 03:14:30;;;;;;;;;;;;;;;;;;5035179;28;19932;-78
2022/10/24 03:16:56;;;;;;;;;;;;;;;;;;5033160;28;19997;-77
2022/10/24 03:19:23;;;;;;;;;;;;;;;;;;4995373;28;19969;-77
2022/10/24 03:21:50;;;;;;;;;;;;;;;;;;4995871;28;20020;-77
2022/10/24 03:24:16;;;;;;;;;;;;;;;;;;4995832;28;19932;-77
2022/10/24 03:26:43;;;;;;;;;;;;;;;;;;4995400;28;20020;-77
2022/10/24 03:29:12;;;;;;;;;;;;;;;;;;4997722;28;19926;-77
2022/10/24 03:31:40;;;;;;;;;;;;;;;;;;4998205;28;19926;-77
2022/10/24 03:34:07;;;;;;;;;;;;;;;;;;5009592;28;19932;-77
2022/10/24 03:36:33;;;;;;;;;;;;;;;;;;5007249;28;19973;-77
2022/10/24 03:39:00;;;;;;;;;;;;;;;;;;4995822;28;20013;-77
2022/10/24 03:41:26;;;;;;;;;;;;;;;;;;4996478;28;20016;-77
2022/10/24 03:43:53;;;;;;;;;;;;;;;;;;4996485;28;19976;-77
2022/10/24 03:46:19;;;;;;;;;;;;;;;;;;4995185;28;19956;-77
2022/10/24 03:48:47;;;;;;;;;;;;;;;;;;4995356;28;19969;-76
2022/10/24 03:51:14;;;;;;;;;;;;;;;;;;4995369;28;20008;-77
2022/10/24 03:53:40;;;;;;;;;;;;;;;;;;4995325;28;19971;-77
2022/10/24 03:56:07;;;;;;;;;;;;;;;;;;4994840;28;19926;-76
2022/10/24 03:58:34;;;;;;;;;;;;;;;;;;4995198;28;19977;-77
2022/10/24 04:01:00;;;;;;;;;;;;;;;;;;4995239;28;19929;-77
2022/10/24 04:03:27;;;;;;;;;;;;;;;;;;4995139;28;19980;-77
2022/10/24 04:05:55;;;;;;;;;;;;;;;;;;4994707;28;20043;-77
2022/10/24 04:08:21;;;;;;;;;;;;;;;;;;4994670;28;20571;-77
2022/10/24 04:10:48;;;;;;;;;;;;;;;;;;4995316;28;20008;-76
2022/10/24 04:13:15;;;;;;;;;;;;;;;;;;4994651;28;20032;-77
2022/10/24 04:15:41;;;;;;;;;;;;;;;;;;4994252;28;20020;-77
2022/10/24 04:18:08;;;;;;;;;;;;;;;;;;4994600;28;20004;-77
2022/10/24 04:20:35;;;;;;;;;;;;;;;;;;4994628;28;19926;-77
2022/10/24 04:23:03;;;;;;;;;;;;;;;;;;4993993;28;19976;-77
2022/10/24 04:25:30;;;;;;;;;;;;;;;;;;4994465;28;19926;-77
2022/10/24 04:27:56;;;;;;;;;;;;;;;;;;4995393;28;19933;-78
2022/10/24 04:30:22;;;;;;;;;;;;;;;;;;4996691;28;20405;-78
2022/10/24 04:32:49;;;;;;;;;;;;;;;;;;4996370;28;20417;-77
2022/10/24 04:35:15;;;;;;;;;;;;;;;;;;4995714;28;20020;-77
2022/10/24 04:37:42;;;;;;;;;;;;;;;;;;4996118;28;19984;-78
2022/10/24 04:40:10;;;;;;;;;;;;;;;;;;4996002;28;19969;-78
2022/10/24 04:42:37;;;;;;;;;;;;;;;;;;4996270;28;19977;-77
2022/10/24 04:45:04;;;;;;;;;;;;;;;;;;4996250;28;20028;-79
2022/10/24 04:47:30;;;;;;;;;;;;;;;;;;4996289;28;19933;-79
2022/10/24 04:49:56;;;;;;;;;;;;;;;;;;4998100;28;19988;-79
2022/10/24 04:52:23;;;;;;;;;;;;;;;;;;4998720;28;20400;-78
2022/10/24 04:54:49;;;;;;;;;;;;;;;;;;4999603;28;19993;-80
2022/10/24 04:57:19;;;;;;;;;;;;;;;;;;4999673;28;19933;-80
2022/10/24 04:59:46;;;;;;;;;;;;;;;;;;4997894;28;20325;-79
2022/10/24 05:02:12;;;;;;;;;;;;;;;;;;4997656;28;19932;-78
2022/10/24 05:04:39;;;;;;;;;;;;;;;;;;4997020;28;20397;-79
2022/10/24 05:07:05;;;;;;;;;;;;;;;;;;4996637;28;20020;-79
2022/10/24 05:09:32;;;;;;;;;;;;;;;;;;4996713;28;20371;-79
2022/10/24 05:11:58;;;;;;;;;;;;;;;;;;4996802;28;20017;-79
2022/10/24 05:14:26;;;;;;;;;;;;;;;;;;4996715;28;20016;-79
2022/10/24 05:16:52;;;;;;;;;;;;;;;;;;4996352;28;20016;-79
2022/10/24 05:19:19;;;;;;;;;;;;;;;;;;4996633;28;20009;-79
2022/10/24 05:21:46;;;;;;;;;;;;;;;;;;4996678;28;19925;-78
2022/10/24 05:24:12;;;;;;;;;;;;;;;;;;4996091;28;19968;-79
2022/10/24 05:26:39;;;;;;;;;;;;;;;;;;4999237;28;19969;-78
2022/10/24 05:29:05;;;;;;;;;;;;;;;;;;4997934;28;20017;-77
2022/10/24 05:31:33;;;;;;;;;;;;;;;;;;4994970;28;19969;-78
2022/10/24 05:34:00;;;;;;;;;;;;;;;;;;4994518;28;19929;-76
2022/10/24 05:36:26;;;;;;;;;;;;;;;;;;4992662;28;19969;-77
2022/10/24 05:38:53;;;;;;;;;;;;;;;;;;4992942;28;19932;-77
2022/10/24 05:41:19;;;;;;;;;;;;;;;;;;4994172;28;19926;-76
2022/10/24 05:43:46;;;;;;;;;;;;;;;;;;4993523;28;19926;-76
2022/10/24 05:46:12;;;;;;;;;;;;;;;;;;4993065;28;20028;-76
2022/10/24 05:48:40;;;;;;;;;;;;;;;;;;4992831;28;19972;-76
2022/10/24 05:51:06;;;;;;;;;;;;;;;;;;4993171;28;20016;-77
2022/10/24 05:53:33;;;;;;;;;;;;;;;;;;4992954;28;20016;-76
2022/10/24 05:55:59;;;;;;;;;;;;;;;;;;4992694;28;20456;-76
2022/10/24 05:58:26;;;;;;;;;;;;;;;;;;4992962;28;20012;-76
2022/10/24 06:00:52;;;;;;;;;;;;;;;;;;4992692;28;20438;-76
2022/10/24 06:03:19;;;;;;;;;;;;;;;;;;5010485;28;20423;-76
2022/10/24 06:05:47;;;;;;;;;;;;;;;;;;5032041;28;20020;-76
2022/10/24 06:08:13;;;;;;;;;;;;;;;;;;5031965;28;20016;-76
2022/10/24 06:10:40;;;;;;;;;;;;;;;;;;5032522;28;20020;-77
2022/10/24 06:13:06;;;;;;;;;;;;;;;;;;5035200;28;19960;-78
2022/10/24 06:15:33;;;;;;;;;;;;;;;;;;5032312;28;19925;-77
2022/10/24 06:18:04;;;;;;;;;;;;;;;;;;5033656;28;21335;-78
2022/10/24 06:20:30;;;;;;;;;;;;;;;;;;5034258;28;19996;-78
2022/10/24 06:22:58;;;;;;;;;;;;;;;;;;5034312;28;19979;-77
2022/10/24 06:25:24;;;;;;;;;;;;;;;;;;5033778;28;20464;-78
2022/10/24 06:27:51;;;;;;;;;;;;;;;;;;5034275;28;20020;-78
2022/10/24 06:30:17;;;;;;;;;;;;;;;;;;5033952;28;19925;-78
2022/10/24 06:32:44;;;;;;;;;;;;;;;;;;5034625;28;19971;-77
2022/10/24 06:35:12;;;;;;;;;;;;;;;;;;5034660;28;19971;-78
2022/10/24 06:37:38;;;;;;;;;;;;;;;;;;5034298;28;19926;-78
2022/10/24 06:40:07;;;;;;;;;;;;;;;;;;5034140;28;20016;-77
2022/10/24 06:42:33;;;;;;;;;;;;;;;;;;5034277;28;20036;-78
2022/10/24 06:45:00;;;;;;;;;;;;;;;;;;5034291;28;19967;-78
2022/10/24 06:47:26;;;;;;;;;;;;;;;;;;5037821;28;20039;-78
2022/10/24 06:49:52;;;;;;;;;;;;;;;;;;5038043;28;20396;-77
2022/10/24 06:52:19;;;;;;;;;;;;;;;;;;5038330;28;19983;-78
2022/10/24 06:54:45;;;;;;;;;;;;;;;;;;5037440;28;20017;-78
2022/10/24 06:57:13;;;;;;;;;;;;;;;;;;5038208;28;20344;-78
2022/10/24 06:59:39;;;;;;;;;;;;;;;;;;5038947;28;20399;-78
2022/10/24 07:02:06;;;;;;;;;;;;;;;;;;5038467;28;19972;-79
2022/10/24 07:04:33;;;;;;;;;;;;;;;;;;5020424;28;20008;-78
2022/10/24 07:06:59;;;;;;;;;;;;;;;;;;5017433;28;19965;-78
2022/10/24 07:09:27;;;;;;;;;;;;;;;;;;5018605;28;19936;-79
2022/10/24 07:11:54;;;;;;;;;;;;;;;;;;5018569;28;19932;-78
2022/10/24 07:14:22;;;;;;;;;;;;;;;;;;5019849;28;19925;-78
2022/10/24 07:16:48;;;;;;;;;;;;;;;;;;5016007;28;19984;-78
2022/10/24 07:19:15;;;;;;;;;;;;;;;;;;5015044;28;19925;-78
2022/10/24 07:21:41;;;;;;;;;;;;;;;;;;5016075;28;20016;-78
2022/10/24 07:24:08;;;;;;;;;;;;;;;;;;5015589;28;20016;-78
2022/10/24 07:26:34;;;;;;;;;;;;;;;;;;5015379;28;20396;-78
2022/10/24 07:29:01;;;;;;;;;;;;;;;;;;5016147;28;19964;-78
2022/10/24 07:31:31;;;;;;;;;;;;;;;;;;5015264;28;20072;-79
2022/10/24 07:33:58;;;;;;;;;;;;;;;;;;5015516;28;20024;-78
2022/10/24 07:36:25;;;;;;;;;;;;;;;;;;5015248;28;19969;-78
2022/10/24 07:38:53;;;;;;;;;;;;;;;;;;5015234;28;20005;-78
2022/10/24 07:41:20;;;;;;;;;;;;;;;;;;5015549;28;20024;-78
2022/10/24 07:43:46;;;;;;;;;;;;;;;;;;5015256;28;19969;-78
2022/10/24 07:46:14;;;;;;;;;;;;;;;;;;5015493;28;20431;-77
2022/10/24 07:48:42;;;;;;;;;;;;;;;;;;5014905;28;19972;-79
2022/10/24 07:51:09;;;;;;;;;;;;;;;;;;5015497;28;19975;-78
2022/10/24 07:53:36;;;;;;;;;;;;;;;;;;5015720;28;19976;-78
2022/10/24 07:56:05;;;;;;;;;;;;;;;;;;5015157;28;19965;-77
2022/10/24 07:58:32;;;;;;;;;;;;;;;;;;5015466;28;19930;-78
2022/10/24 08:01:02;;;;;;;;;;;;;;;;;;5015781;28;19972;-79
2022/10/24 08:03:28;;;;;;;;;;;;;;;;;;5025117;28;20016;-77
2022/10/24 08:05:56;;;;;;;;;;;;;;;;;;5034303;28;19965;-80
2022/10/24 08:08:22;;;;;;;;;;;;;;;;;;5034796;28;19971;-79
2022/10/24 08:10:49;;;;;;;;;;;;;;;;;;5035007;28;19972;-79
2022/10/24 08:13:16;;;;;;;;;;;;;;;;;;5034265;28;19929;-79
2022/10/24 08:15:42;;;;;;;;;;;;;;;;;;5034455;28;20015;-79
2022/10/24 08:18:08;;;;;;;;;;;;;;;;;;5033793;28;20458;-79
2022/10/24 08:20:35;;;;;;;;;;;;;;;;;;5034283;28;19972;-77
2022/10/24 08:23:03;;;;;;;;;;;;;;;;;;5034253;28;20030;-78
2022/10/24 08:25:29;;;;;;;;;;;;;;;;;;5033706;28;19925;-79
2022/10/24 08:27:55;;;;;;;;;;;;;;;;;;5033208;28;19971;-78
2022/10/24 08:30:23;;;;;;;;;;;;;;;;;;5033498;28;19947;-77
2022/10/24 08:32:50;;;;;;;;;;;;;;;;;;5034343;28;19932;-79
2022/10/24 08:35:17;;;;;;;;;;;;;;;;;;5033447;28;20017;-79
2022/10/24 08:37:43;;;;;;;;;;;;;;;;;;5033887;28;20511;-79
2022/10/24 08:40:15;;;;;;;;;;;;;;;;;;5033264;28;19925;-78
2022/10/24 08:42:41;;;;;;;;;;;;;;;;;;5033945;28;20544;-78
2022/10/24 08:45:11;;;;;;;;;;;;;;;;;;5033759;28;20483;-79
2022/10/24 08:47:40;;;;;;;;;;;;;;;;;;5033854;28;20024;-78
2022/10/24 08:50:11;;;;;;;;;;;;;;;;;;5033527;28;19990;-78
2022/10/24 08:52:40;;;;;;;;;;;;;;;;;;5037395;28;19980;-78
2022/10/24 08:55:12;;;;;;;;;;;;;;;;;;5038001;28;20327;-77
2022/10/24 08:57:42;;;;;;;;;;;;;;;;;;5037932;28;19925;-79
2022/10/24 09:00:15;;;;;;;;;;;;;;;;;;5035088;28;20372;-78
2022/10/24 09:02:43;;;;;;;;;;;;;;;;;;5029437;28;19932;-78
2022/10/24 09:05:21;;;;;;;;;;;;;;;;;;5013396;28;20105;-78
2022/10/24 09:07:49;;;;;;;;;;;;;;;;;;5013065;28;20024;-78
2022/10/24 09:10:18;;;;;;;;;;;;;;;;;;5013893;28;19972;-80
2022/10/24 09:12:46;;;;;;;;;;;;;;;;;;5013337;28;19925;-78
2022/10/24 09:15:15;;;;;;;;;;;;;;;;;;5012933;28;19964;-78
2022/10/24 09:17:42;;;;;;;;;;;;;;;;;;5014186;28;19951;-79
2022/10/24 09:20:19;;;;;;;;;;;;;;;;;;5014465;28;19932;-79
2022/10/24 09:22:49;;;;;;;;;;;;;;;;;;5014411;28;19994;-77
2022/10/24 09:25:16;;;;;;;;;;;;;;;;;;5016412;28;19975;-77
2022/10/24 09:27:42;;;;;;;;;;;;;;;;;;5025965;28;19972;-78
2022/10/24 09:30:15;;;;;;;;;;;;;;;;;;5036523;28;20133;-78
2022/10/24 09:32:42;;;;;;;;;;;;;;;;;;5034281;28;20393;-78
2022/10/24 09:35:12;;;;;;;;;;;;;;;;;;5033396;28;19925;-78
2022/10/24 09:37:40;;;;;;;;;;;;;;;;;;5032852;28;19952;-78
2022/10/24 09:40:08;;;;;;;;;;;;;;;;;;5032842;28;20368;-78
2022/10/24 09:42:36;;;;;;;;;;;;;;;;;;5033680;28;20028;-77
2022/10/24 09:45:17;;;;;;;;;;;;;;;;;;5033310;28;19933;-79
2022/10/24 09:47:45;;;;;;;;;;;;;;;;;;5033501;28;20017;-79
2022/10/24 09:50:18;;;;;;;;;;;;;;;;;;5032540;28;19932;-79
2022/10/24 09:52:48;;;;;;;;;;;;;;;;;;5032546;28;20016;-79
2022/10/24 09:55:16;;;;;;;;;;;;;;;;;;5032857;28;19981;-79
2022/10/24 09:57:42;;;;;;;;;;;;;;;;;;5031884;28;19925;-77
2022/10/24 10:00:21;;;;;;;;;;;;;;;;;;5030582;28;19955;-77
2022/10/24 10:02:58;;;;;;;;;;;;;;;;;;5026114;28;19973;-77
2022/10/24 10:05:25;;;;;;;;;;;;;;;;;;5010991;28;20008;-78
2022/10/24 10:07:51;;;;;;;;;;;;;;;;;;5012819;28;19936;-78
2022/10/24 10:10:29;;;;;;;;;;;;;;;;;;5013158;28;19963;-78
2022/10/24 10:12:57;;;;;;;;;;;;;;;;;;5014640;28;19964;-78
2022/10/24 10:15:26;;;;;;;;;;;;;;;;;;5017167;28;19979;-78
2022/10/24 10:17:54;;;;;;;;;;;;;;;;;;5016325;28;20318;-76
2022/10/24 10:20:26;;;;;;;;;;;;;;;;;;5016789;28;19925;-75
2022/10/24 10:22:53;;;;;;;;;;;;;;;;;;5014174;28;19972;-77
2022/10/24 10:25:28;;;;;;;;;;;;;;;;;;5014393;28;20301;-77
2022/10/24 10:27:54;;;;;;;;;;;;;;;;;;5016279;28;19932;-77
2022/10/24 10:30:21;;;;;;;;;;;;;;;;;;5015745;28;19932;-77
2022/10/24 10:32:53;;;;;;;;;;;;;;;;;;5022710;28;19995;-79
2022/10/24 10:35:22;;;;;;;;;;;;;;;;;;5022129;28;19925;-81
2022/10/24 10:37:54;;;;;;;;;;;;;;;;;;5020301;28;19926;-78
2022/10/24 10:40:25;;;;;;;;;;;;;;;;;;5016076;28;19987;-78
2022/10/24 10:43:06;;;;;;;;;;;;;;;;;;5016095;28;20072;-79
2022/10/24 10:45:35;;;;;;;;;;;;;;;;;;5017552;28;20011;-78
2022/10/24 10:48:07;;;;;;;;;;;;;;;;;;5016959;28;20604;-78
2022/10/24 10:50:36;;;;;;;;;;;;;;;;;;5016607;28;19935;-79
2022/10/24 10:53:11;;;;;;;;;;;;;;;;;;5017583;28;19975;-78
2022/10/24 10:55:39;;;;;;;;;;;;;;;;;;5017062;28;19936;-78
2022/10/24 10:58:12;;;;;;;;;;;;;;;;;;5017263;28;19932;-78
2022/10/24 11:00:41;;;;;;;;;;;;;;;;;;5017607;28;20024;-77
2022/10/24 11:03:15;;;;;;;;;;;;;;;;;;5024654;28;19925;-78
2022/10/24 11:05:47;;;;;;;;;;;;;;;;;;5036298;28;19971;-76
2022/10/24 11:08:32;;;;;;;;;;;;;;;;;;5036298;28;19931;-77
2022/10/24 11:11:02;;;;;;;;;;;;;;;;;;5036356;28;19933;-78
2022/10/24 11:13:32;;;;;;;;;;;;;;;;;;5036285;28;19936;-80
2022/10/24 11:16:00;;;;;;;;;;;;;;;;;;5036356;28;19951;-78
2022/10/24 11:18:29;;;;;;;;;;;;;;;;;;5035810;28;20404;-79
2022/10/24 11:20:58;;;;;;;;;;;;;;;;;;5035691;28;19971;-77
2022/10/24 11:23:28;;;;;;;;;;;;;;;;;;5034940;28;19925;-78
2022/10/24 11:25:57;;;;;;;;;;;;;;;;;;5034886;28;19957;-79
2022/10/24 11:28:27;;;;;;;;;;;;;;;;;;5034972;28;20019;-80
2022/10/24 11:30:56;;;;;;;;;;;;;;;;;;5034413;28;20545;-79
2022/10/24 11:33:25;;;;;;;;;;;;;;;;;;5037014;28;19925;-79
2022/10/24 11:35:58;;;;;;;;;;;;;;;;;;5035731;28;19983;-78
2022/10/24 11:38:25;;;;;;;;;;;;;;;;;;5035902;28;20020;-78
2022/10/24 11:40:55;;;;;;;;;;;;;;;;;;5035971;28;19979;-78
2022/10/24 11:43:24;;;;;;;;;;;;;;;;;;5035251;28;20020;-78
2022/10/24 11:45:55;;;;;;;;;;;;;;;;;;5035619;28;19971;-78
2022/10/24 11:48:25;;;;;;;;;;;;;;;;;;5035801;28;20015;-78
2022/10/24 11:50:54;;;;;;;;;;;;;;;;;;5035868;28;19964;-79
2022/10/24 11:53:41;;;;;;;;;;;;;;;;;;5040685;28;19948;-76
2022/10/24 11:56:12;;;;;;;;;;;;;;;;;;5058986;28;19947;-77
2022/10/24 11:58:47;;;;;;;;;;;;;;;;;;5058552;28;19977;-75
2022/10/24 12:01:26;;;;;;;;;;;;;;;;;;5046595;28;19974;-77
2022/10/24 12:04:14;;;;;;;;;;;;;;;;;;5036547;28;20389;-79
2022/10/24 12:06:47;;;;;;;;;;;;;;;;;;5035331;28;20686;-78
2022/10/24 12:09:28;;;;;;;;;;;;;;;;;;5036922;28;19925;-78
2022/10/24 12:11:59;;;;;;;;;;;;;;;;;;5033585;28;20268;-77
2022/10/24 12:14:31;;;;;;;;;;;;;;;;;;5030866;28;19977;-80
2022/10/24 12:17:12;;;;;;;;;;;;;;;;;;5015791;28;19980;-78
2022/10/24 12:19:39;;;;;;;;;;;;;;;;;;5015070;28;19925;-79
2022/10/24 12:22:06;;;;;;;;;;;;;;;;;;5014845;28;20008;-78
2022/10/24 12:24:34;;;;;;;;;;;;;;;;;;5016452;28;19969;-78
2022/10/24 12:27:02;;;;;;;;;;;;;;;;;;5017534;28;19929;-79
2022/10/24 12:29:30;;;;;;;;;;;;;;;;;;5017027;28;19929;-77
2022/10/24 12:31:57;;;;;;;;;;;;;;;;;;5014023;28;19925;-78
2022/10/24 12:34:44;;;;;;;;;;;;;;;;;;5014741;28;20005;-78
2022/10/24 12:37:13;;;;;;;;;;;;;;;;;;5013512;28;19985;-78
2022/10/24 12:39:40;;;;;;;;;;;;;;;;;;5019052;28;19929;-79
2022/10/24 12:42:13;;;;;;;;;;;;;;;;;;5018844;28;19994;-79
2022/10/24 12:44:44;;;;;;;;;;;;;;;;;;5018968;28;20495;-79
2022/10/24 12:47:29;;;;;;;;;;;;;;;;;;5015966;28;19970;-79
2022/10/24 12:49:57;;;;;;;;;;;;;;;;;;5018556;28;20368;-79
2022/10/24 12:52:43;;;;;;;;;;;;;;;;;;5020259;28;19965;-79
2022/10/24 12:55:24;;;;;;;;;;;;;;;;;;5018489;28;19930;-77
2022/10/24 12:57:50;;;;;;;;;;;;;;;;;;5017722;28;19993;-77
2022/10/24 13:00:22;;;;;;;;;;;;;;;;;;5022235;28;20022;-78
2022/10/24 13:02:55;;;;;;;;;;;;;;;;;;5022479;28;20002;-79
2022/10/24 13:05:33;;;;;;;;;;;;;;;;;;5034536;28;19964;-78
2022/10/24 13:08:07;;;;;;;;;;;;;;;;;;5019281;28;20300;-79
2022/10/24 13:10:42;;;;;;;;;;;;;;;;;;5014297;28;19976;-79
2022/10/24 13:13:26;;;;;;;;;;;;;;;;;;5015390;28;19979;-79
2022/10/24 13:15:54;;;;;;;;;;;;;;;;;;5005335;28;20021;-78
2022/10/24 13:18:28;;;;;;;;;;;;;;;;;;5014700;28;19926;-79
2022/10/24 13:21:08;;;;;;;;;;;;;;;;;;5015229;28;19926;-79
2022/10/24 13:23:35;;;;;;;;;;;;;;;;;;5015164;28;19929;-78
2022/10/24 13:26:01;;;;;;;;;;;;;;;;;;5015198;28;19926;-79
2022/10/24 13:28:37;;;;;;;;;;;;;;;;;;5014488;28;19988;-79
2022/10/24 13:31:23;;;;;;;;;;;;;;;;;;5014996;28;20431;-78
2022/10/24 13:33:49;;;;;;;;;;;;;;;;;;5014012;28;19930;-78
2022/10/24 13:36:21;;;;;;;;;;;;;;;;;;5012915;28;20012;-77
2022/10/24 13:38:51;;;;;;;;;;;;;;;;;;5014744;28;19983;-77
2022/10/24 13:41:26;;;;;;;;;;;;;;;;;;5015076;28;19932;-79
2022/10/24 13:43:53;;;;;;;;;;;;;;;;;;5011063;28;19925;-80
2022/10/24 13:46:23;;;;;;;;;;;;;;;;;;5014979;28;19930;-76
2022/10/24 13:48:50;;;;;;;;;;;;;;;;;;5013172;28;20039;-79
2022/10/24 13:51:21;;;;;;;;;;;;;;;;;;5012338;28;19947;-79
2022/10/24 13:53:49;;;;;;;;;;;;;;;;;;5012690;28;19975;-79
2022/10/24 13:56:16;;;;;;;;;;;;;;;;;;5013321;28;19964;-78
2022/10/24 13:58:44;;;;;;;;;;;;;;;;;;5012370;28;20016;-78
2022/10/24 14:01:14;;;;;;;;;;;;;;;;;;5012405;28;19929;-79
2022/10/24 14:03:42;;;;;;;;;;;;;;;;;;5014747;28;19929;-79
2022/10/24 14:06:09;;;;;;;;;;;;;;;;;;5014883;28;19932;-78
2022/10/24 14:08:38;;;;;;;;;;;;;;;;;;5013834;28;19973;-78
2022/10/24 14:11:06;;;;;;;;;;;;;;;;;;5014623;28;19961;-78
2022/10/24 14:13:34;;;;;;;;;;;;;;;;;;5015455;28;19975;-77
2022/10/24 14:16:02;;;;;;;;;;;;;;;;;;5015649;28;20300;-77
2022/10/24 14:18:29;;;;;;;;;;;;;;;;;;5020876;28;20107;-79
2022/10/24 14:20:57;;;;;;;;;;;;;;;;;;5018404;28;20397;-78
2022/10/24 14:23:24;;;;;;;;;;;;;;;;;;5014156;28;20461;-78
2022/10/24 14:25:56;;;;;;;;;;;;;;;;;;5012564;28;19933;-78
2022/10/24 14:28:24;;;;;;;;;;;;;;;;;;5011888;28;20651;-76
2022/10/24 14:30:53;;;;;;;;;;;;;;;;;;5013413;28;20029;-77
2022/10/24 14:33:22;;;;;;;;;;;;;;;;;;5012529;28;19937;-78
2022/10/24 14:35:49;;;;;;;;;;;;;;;;;;5012918;28;19956;-79
2022/10/24 14:38:16;;;;;;;;;;;;;;;;;;5012211;28;19973;-77
2022/10/24 14:40:43;;;;;;;;;;;;;;;;;;5011069;28;20463;-77
2022/10/24 14:43:12;;;;;;;;;;;;;;;;;;5010778;28;20004;-77
2022/10/24 14:45:39;;;;;;;;;;;;;;;;;;5010569;28;20234;-77
2022/10/24 14:48:15;;;;;;;;;;;;;;;;;;5021557;28;19936;-78
2022/10/24 14:50:46;;;;;;;;;;;;;;;;;;5035743;28;19925;-77
2022/10/24 14:53:20;;;;;;;;;;;;;;;;;;5033767;28;19925;-77
2022/10/24 14:55:49;;;;;;;;;;;;;;;;;;5016120;28;19925;-77
2022/10/24 14:58:22;;;;;;;;;;;;;;;;;;5012593;28;19926;-79
2022/10/24 15:00:49;;;;;;;;;;;;;;;;;;5012902;28;19980;-78
2022/10/24 15:03:15;;;;;;;;;;;;;;;;;;5022001;28;19968;-78
2022/10/24 15:05:42;;;;;;;;;;;;;;;;;;5034143;28;19932;-78
2022/10/24 15:08:22;;;;;;;;;;;;;;;;;;5036843;28;20274;-79
2022/10/24 15:10:49;;;;;;;;;;;;;;;;;;5037412;28;19957;-80
2022/10/24 15:13:19;;;;;;;;;;;;;;;;;;5039389;28;19981;-79
2022/10/24 15:15:49;;;;;;;;;;;;;;;;;;5042386;28;19925;-79
2022/10/24 15:18:18;;;;;;;;;;;;;;;;;;5041451;28;19929;-78
2022/10/24 15:20:46;;;;;;;;;;;;;;;;;;5042325;28;19976;-79
2022/10/24 15:23:19;;;;;;;;;;;;;;;;;;5039430;28;19925;-77
2022/10/24 15:25:46;;;;;;;;;;;;;;;;;;5034432;28;19956;-77
2022/10/24 15:28:27;;;;;;;;;;;;;;;;;;5034164;28;19965;-77
2022/10/24 15:30:55;;;;;;;;;;;;;;;;;;5036349;28;19972;-81
2022/10/24 15:33:21;;;;;;;;;;;;;;;;;;5036583;28;19933;-78
2022/10/24 15:35:48;;;;;;;;;;;;;;;;;;5033787;28;19975;-78
2022/10/24 15:38:15;;;;;;;;;;;;;;;;;;5035768;28;19977;-79
2022/10/24 15:40:43;;;;;;;;;;;;;;;;;;5036756;28;20373;-78
2022/10/24 15:43:11;;;;;;;;;;;;;;;;;;5036839;28;19976;-78
2022/10/24 15:45:37;;;;;;;;;;;;;;;;;;5036104;28;19967;-78
2022/10/24 15:48:05;;;;;;;;;;;;;;;;;;5036540;28;19976;-80
2022/10/24 15:50:32;;;;;;;;;;;;;;;;;;5036738;28;20476;-78
2022/10/24 15:53:00;;;;;;;;;;;;;;;;;;5047528;28;19964;-78
2022/10/24 15:55:27;;;;;;;;;;;;;;;;;;5049270;28;19925;-79
2022/10/24 15:57:55;;;;;;;;;;;;;;;;;;5047084;28;19979;-79
2022/10/24 16:00:22;;;;;;;;;;;;;;;;;;5045439;28;19928;-80
2022/10/24 16:02:50;;;;;;;;;;;;;;;;;;5046061;28;19941;-80
2022/10/24 16:05:19;;;;;;;;;;;;;;;;;;5028465;28;20495;-77
2022/10/24 16:07:45;;;;;;;;;;;;;;;;;;5030990;28;19956;-79
2022/10/24 16:10:13;;;;;;;;;;;;;;;;;;5030327;28;19973;-80
2022/10/24 16:12:40;;;;;;;;;;;;;;;;;;5023323;28;19961;-81
2022/10/24 16:15:07;;;;;;;;;;;;;;;;;;5019335;28;19932;-80
2022/10/24 16:17:34;;;;;;;;;;;;;;;;;;5019670;28;19997;-78
2022/10/24 16:20:00;;;;;;;;;;;;;;;;;;5019752;28;20356;-79
2022/10/24 16:22:28;;;;;;;;;;;;;;;;;;5018772;28;20022;-79
2022/10/24 16:24:54;;;;;;;;;;;;;;;;;;5023502;28;19925;-76
2022/10/24 16:27:21;;;;;;;;;;;;;;;;;;5023309;28;19926;-77
2022/10/24 16:29:47;;;;;;;;;;;;;;;;;;5021970;28;19926;-79
2022/10/24 16:32:14;;;;;;;;;;;;;;;;;;5021519;28;19972;-78
2022/10/24 16:34:40;;;;;;;;;;;;;;;;;;5021606;28;19971;-78
2022/10/24 16:37:07;;;;;;;;;;;;;;;;;;5019378;28;19965;-79
2022/10/24 16:39:34;;;;;;;;;;;;;;;;;;5013805;28;19979;-78
2022/10/24 16:42:03;;;;;;;;;;;;;;;;;;5012577;28;20472;-78
2022/10/24 16:44:30;;;;;;;;;;;;;;;;;;5012030;28;19933;-78
2022/10/24 16:46:56;;;;;;;;;;;;;;;;;;5012938;28;19980;-78
2022/10/24 16:49:23;;;;;;;;;;;;;;;;;;5016693;28;19932;-79
2022/10/24 16:51:49;;;;;;;;;;;;;;;;;;5013083;28;19925;-79
2022/10/24 16:54:17;;;;;;;;;;;;;;;;;;5013090;28;20024;-78
2022/10/24 16:56:47;;;;;;;;;;;;;;;;;;5012445;28;19933;-79